Time;durP1;ratioP1;P1;durP2;ratioP2;P2;SDS_P1;SDS_P2;PMS_P1;PMS_P2;Temp;Humidity;BMP_temperature;BMP_pressure;BME280_temperature;BME280_humidity;BME280_pressure;Samples;Min_cycle;Max_cycle;Signal;HPM_P1;HPM_P2
2022/07/12 00:01:56;;;;;;;15.68;8.20;;;15.40;99.90;;;;;;5075599;28;20049;-81
2022/07/12 00:04:22;;;;;;;15.32;7.80;;;15.40;99.90;;;;;;5075489;28;20024;-82
2022/07/12 00:06:48;;;;;;;14.85;7.97;;;15.40;99.90;;;;;;5075739;28;20429;-81
2022/07/12 00:09:14;;;;;;;16.40;8.48;;;15.40;99.90;;;;;;5075500;28;20047;-78
2022/07/12 00:11:40;;;;;;;17.13;9.13;;;15.40;99.90;;;;;;5075968;28;20123;-81
2022/07/12 00:14:06;;;;;;;16.70;7.70;;;15.40;99.90;;;;;;5076206;28;20033;-81
2022/07/12 00:16:32;;;;;;;18.80;8.68;;;15.30;99.90;;;;;;5075181;28;20447;-82
2022/07/12 00:18:58;;;;;;;20.20;8.18;;;15.30;99.90;;;;;;5075542;28;20027;-82
2022/07/12 00:21:24;;;;;;;12.30;7.20;;;15.20;99.90;;;;;;5074840;28;20470;-79
2022/07/12 00:23:50;;;;;;;12.88;7.35;;;15.30;99.90;;;;;;5075351;28;20379;-71
2022/07/12 00:26:16;;;;;;;17.70;8.32;;;15.30;99.90;;;;;;5076062;28;20029;-81
2022/07/12 00:28:42;;;;;;;20.92;8.50;;;15.30;99.90;;;;;;5075182;28;20070;-82
2022/07/12 00:31:08;;;;;;;16.90;8.32;;;15.20;99.90;;;;;;5074840;28;20451;-78
2022/07/12 00:33:33;;;;;;;19.33;8.05;;;15.20;99.90;;;;;;5075493;28;20028;-78
2022/07/12 00:35:59;;;;;;;20.50;8.18;;;15.10;99.90;;;;;;5075255;28;20029;-81
2022/07/12 00:38:25;;;;;;;16.38;8.82;;;15.10;99.90;;;;;;5075137;28;20040;-82
2022/07/12 00:40:51;;;;;;;18.30;8.65;;;15.20;99.90;;;;;;5074596;28;20033;-67
2022/07/12 00:43:17;;;;;;;14.35;7.65;;;15.20;99.90;;;;;;5075707;28;20047;-81
2022/07/12 00:45:43;;;;;;;14.52;8.15;;;15.20;99.90;;;;;;5075297;28;20036;-81
2022/07/12 00:48:10;;;;;;;13.80;8.23;;;15.20;99.90;;;;;;5074676;28;20039;-83
2022/07/12 00:50:36;;;;;;;13.13;8.13;;;15.20;99.90;;;;;;5074684;28;20051;-81
2022/07/12 00:53:03;;;;;;;17.67;8.15;;;15.20;99.90;;;;;;5074576;28;20451;-81
2022/07/12 00:55:28;;;;;;;18.73;9.10;;;15.20;99.90;;;;;;5073228;28;20074;-82
2022/07/12 00:57:54;;;;;;;14.40;8.00;;;15.20;99.90;;;;;;5073548;28;20020;-77
2022/07/12 01:00:25;;;;;;;15.98;7.82;;;15.20;99.90;;;;;;5074213;28;20036;-82
2022/07/12 01:02:57;;;;;;;13.60;7.55;;;15.20;99.90;;;;;;5074620;28;20459;-81
2022/07/12 01:05:23;;;;;;;16.83;8.52;;;15.10;99.90;;;;;;5074286;28;20036;-83
2022/07/12 01:07:50;;;;;;;11.82;6.78;;;15.10;99.90;;;;;;5073757;28;20051;-84
2022/07/12 01:10:16;;;;;;;11.52;6.40;;;15.00;99.90;;;;;;5074255;28;20025;-80
2022/07/12 01:12:42;;;;;;;11.07;6.22;;;15.00;99.90;;;;;;5074496;28;20052;-85
2022/07/12 01:15:09;;;;;;;9.75;6.05;;;15.00;99.90;;;;;;5074855;28;20064;-84
2022/07/12 01:17:35;;;;;;;11.27;6.57;;;14.90;99.90;;;;;;5055273;28;20452;-78
2022/07/12 01:20:04;;;;;;;13.30;6.65;;;14.70;99.90;;;;;;5058470;28;20072;-86
2022/07/12 01:22:35;;;;;;;12.38;5.88;;;14.70;99.90;;;;;;5052536;28;20104;-79
2022/07/12 01:25:04;;;;;;;15.02;6.40;;;14.60;99.90;;;;;;5053603;28;20436;-83
2022/07/12 01:27:30;;;;;;;11.25;6.15;;;14.70;99.90;;;;;;5053420;28;20017;-85
2022/07/12 01:29:56;;;;;;;12.25;6.63;;;14.70;99.90;;;;;;5052069;28;20017;-84
2022/07/12 01:32:25;;;;;;;13.35;5.80;;;14.70;99.90;;;;;;5053679;28;20025;-83
2022/07/12 01:34:58;;;;;;;14.90;5.20;;;14.80;99.90;;;;;;5073582;28;20070;-81
2022/07/12 01:37:25;;;;;;;;;;;14.70;99.90;;;;;;5074185;28;20029;-83
2022/07/12 01:39:53;;;;;;;14.85;5.88;;;14.50;99.90;;;;;;5073670;28;19912;-76
2022/07/12 01:42:22;;;;;;;10.63;4.55;;;14.50;99.90;;;;;;5073827;28;20090;-85
2022/07/12 01:44:52;;;;;;;11.25;4.90;;;14.50;99.90;;;;;;5073786;28;20027;-85
2022/07/12 01:47:19;;;;;;;7.53;4.53;;;14.50;99.90;;;;;;5074140;28;20056;-80
2022/07/12 01:49:45;;;;;;;9.05;4.97;;;14.50;99.90;;;;;;5068354;28;20043;-68
2022/07/12 01:52:12;;;;;;;7.90;4.93;;;14.50;99.90;;;;;;5054659;28;20021;-86
2022/07/12 01:54:38;;;;;;;8.95;5.15;;;14.40;99.90;;;;;;5054696;28;20032;-85
2022/07/12 01:57:04;;;;;;;11.23;5.22;;;14.40;99.90;;;;;;5055049;28;20479;-85
2022/07/12 01:59:31;;;;;;;9.68;4.90;;;14.40;99.90;;;;;;5054712;28;20124;-85
2022/07/12 02:01:57;;;;;;;9.52;4.38;;;14.40;99.90;;;;;;5055988;28;20474;-79
2022/07/12 02:04:23;;;;;;;8.30;4.75;;;14.40;99.90;;;;;;5056100;28;20028;-85
2022/07/12 02:06:49;;;;;;;12.25;5.25;;;14.40;99.90;;;;;;5053519;28;20021;-80
2022/07/12 02:09:18;;;;;;;9.50;4.43;;;14.40;99.90;;;;;;5052034;28;20079;-84
2022/07/12 02:11:46;;;;;;;8.93;4.28;;;14.30;99.90;;;;;;5052134;28;20498;-79
2022/07/12 02:14:13;;;;;;;8.30;4.25;;;14.30;99.90;;;;;;5052277;28;20648;-85
2022/07/12 02:16:40;;;;;;;12.05;5.55;;;14.30;99.90;;;;;;5052427;28;20083;-85
2022/07/12 02:19:07;;;;;;;14.35;6.38;;;14.30;99.90;;;;;;5052417;28;20092;-84
2022/07/12 02:21:33;;;;;;;11.18;6.22;;;14.30;99.90;;;;;;5051947;28;20502;-84
2022/07/12 02:23:59;;;;;;;17.55;7.75;;;14.20;99.90;;;;;;5052391;28;20044;-83
2022/07/12 02:26:25;;;;;;;20.13;8.05;;;14.20;99.90;;;;;;5051101;28;20537;-85
2022/07/12 02:28:51;;;;;;;15.30;7.28;;;14.20;99.90;;;;;;5052540;28;20025;-85
2022/07/12 02:31:17;;;;;;;17.92;8.07;;;14.20;99.90;;;;;;5052207;28;20036;-85
2022/07/12 02:33:43;;;;;;;14.30;7.70;;;14.10;99.90;;;;;;5052360;28;20028;-81
2022/07/12 02:36:09;;;;;;;17.25;8.18;;;14.10;99.90;;;;;;5053596;28;20052;-85
2022/07/12 02:38:35;;;;;;;15.75;7.43;;;14.10;99.90;;;;;;5054382;28;20013;-85
2022/07/12 02:41:01;;;;;;;15.80;7.40;;;14.10;99.90;;;;;;5051539;28;20033;-79
2022/07/12 02:43:29;;;;;;;14.32;7.25;;;14.00;99.90;;;;;;5055332;28;20023;-84
2022/07/12 02:46:06;;;;;;;15.52;6.57;;;14.00;99.90;;;;;;5051942;28;20032;-84
2022/07/12 02:48:32;;;;;;;16.42;6.53;;;14.00;99.90;;;;;;5051826;28;20045;-85
2022/07/12 02:50:59;;;;;;;11.18;5.80;;;14.00;99.90;;;;;;5051797;28;20048;-86
2022/07/12 02:53:25;;;;;;;14.30;5.78;;;14.00;99.90;;;;;;5051963;28;20032;-84
2022/07/12 02:55:51;;;;;;;9.85;5.20;;;13.90;99.90;;;;;;5051341;28;20021;-84
2022/07/12 02:58:17;;;;;;;10.50;5.55;;;13.90;99.90;;;;;;5052400;28;20033;-84
2022/07/12 03:00:44;;;;;;;12.20;5.00;;;13.90;99.90;;;;;;5084038;28;20029;-84
2022/07/12 03:03:12;;;;;;;14.65;4.75;;;13.90;99.90;;;;;;5051537;28;20090;-85
2022/07/12 03:05:38;;;;;;;9.20;4.85;;;13.90;99.90;;;;;;5051254;28;20460;-85
2022/07/12 03:08:05;;;;;;;11.30;5.20;;;13.90;99.90;;;;;;5051306;28;20029;-84
2022/07/12 03:10:31;;;;;;;11.30;4.80;;;13.90;99.90;;;;;;5050622;28;20052;-80
2022/07/12 03:12:57;;;;;;;10.75;4.32;;;13.80;99.90;;;;;;5051569;28;20039;-76
2022/07/12 03:15:23;;;;;;;8.50;3.70;;;13.90;99.90;;;;;;5051128;28;20027;-85
2022/07/12 03:17:49;;;;;;;10.57;4.00;;;13.90;99.90;;;;;;5051865;28;20028;-86
2022/07/12 03:20:15;;;;;;;8.13;3.53;;;13.90;99.90;;;;;;5052003;28;20091;-85
2022/07/12 03:22:42;;;;;;;25.80;4.10;;;14.00;99.90;;;;;;5055874;28;20031;-85
2022/07/12 03:25:08;;;;;;;11.65;4.53;;;14.00;99.90;;;;;;5058160;28;20017;-85
2022/07/12 03:27:34;;;;;;;14.70;3.97;;;14.10;99.90;;;;;;5057733;28;20028;-84
2022/07/12 03:30:00;;;;;;;15.18;3.65;;;14.10;99.90;;;;;;5059566;28;20025;-71
2022/07/12 03:32:26;;;;;;;10.90;4.15;;;14.20;99.90;;;;;;5061566;28;20027;-84
2022/07/12 03:34:52;;;;;;;9.35;3.80;;;14.20;99.90;;;;;;5057487;28;20025;-84
2022/07/12 03:37:18;;;;;;;8.63;4.45;;;14.30;99.90;;;;;;5056192;28;20025;-85
2022/07/12 03:39:44;;;;;;;15.05;6.28;;;14.40;99.90;;;;;;5088579;28;20812;-82
2022/07/12 03:42:12;;;;;;;17.00;7.35;;;14.50;99.90;;;;;;5055155;28;20032;-81
2022/07/12 03:44:38;;;;;;;14.95;6.78;;;14.60;99.90;;;;;;5058628;28;20468;-84
2022/07/12 03:47:04;;;;;;;10.75;5.75;;;14.60;99.90;;;;;;5055932;28;20027;-77
2022/07/12 03:49:30;;;;;;;16.88;6.20;;;14.70;99.90;;;;;;5054898;28;20021;-78
2022/07/12 03:51:56;;;;;;;13.93;6.65;;;15.60;99.90;;;;;;5056591;28;20510;-84
2022/07/12 03:54:22;;;;;;;11.90;6.03;;;16.50;99.90;;;;;;5070140;28;20455;-79
2022/07/12 03:59:33;;;;;;;10.43;4.65;;;17.70;98.30;;;;;;5066976;28;20482;-80
2022/07/12 04:01:59;;;;;;;7.20;4.78;;;18.50;95.00;;;;;;5066605;28;20056;-83
2022/07/12 04:04:25;;;;;;;11.40;5.28;;;19.20;92.70;;;;;;5071736;28;20025;-84
2022/07/12 04:06:51;;;;;;;9.93;4.60;;;19.70;90.40;;;;;;5059254;28;20021;-84
2022/07/12 04:09:17;;;;;;;10.30;4.68;;;20.70;88.70;;;;;;5062818;28;20044;-62
2022/07/12 04:11:43;;;;;;;10.95;4.47;;;20.40;84.60;;;;;;5057051;28;20051;-84
2022/07/12 04:14:09;;;;;;;8.60;4.72;;;21.20;81.80;;;;;;5053951;28;20032;-83
2022/07/12 04:16:34;;;;;;;6.05;4.22;;;21.20;79.70;;;;;;5054660;28;20099;-80
2022/07/12 04:19:00;;;;;;;12.15;4.53;;;21.40;78.70;;;;;;5054069;28;20404;-86
2022/07/12 04:21:26;;;;;;;7.93;4.47;;;21.40;78.90;;;;;;5088517;28;20049;-80
2022/07/12 04:23:52;;;;;;;7.93;4.30;;;22.10;78.50;;;;;;5057845;28;20467;-66
2022/07/12 04:26:18;;;;;;;9.70;4.85;;;22.10;76.20;;;;;;5068728;28;20434;-61
2022/07/12 04:28:43;;;;;;;9.55;4.40;;;22.90;75.50;;;;;;5067507;28;20498;-71
2022/07/12 04:31:09;;;;;;;12.65;5.50;;;22.60;74.70;;;;;;5067207;28;20100;-83
2022/07/12 04:33:35;;;;;;;10.18;5.18;;;23.20;75.10;;;;;;5087124;28;20059;-83
2022/07/12 04:36:01;;;;;;;11.70;4.50;;;22.80;73.90;;;;;;5054329;28;20491;-81
2022/07/12 04:38:27;;;;;;;10.82;5.30;;;22.50;73.70;;;;;;5054541;28;20020;-82
2022/07/12 04:40:53;;;;;;;9.25;4.57;;;22.50;73.80;;;;;;5053311;28;20025;-79
2022/07/12 04:43:19;;;;;;;8.32;4.28;;;22.60;73.70;;;;;;5055574;28;20083;-81
2022/07/12 04:45:44;;;;;;;8.18;4.38;;;23.00;74.70;;;;;;5053447;28;20021;-81
2022/07/12 04:48:11;;;;;;;7.55;4.50;;;23.30;72.90;;;;;;5053573;28;20021;-82
2022/07/12 04:50:37;;;;;;;5.60;3.58;;;23.40;73.00;;;;;;5066210;28;20020;-80
2022/07/12 04:53:03;;;;;;;8.48;4.60;;;25.00;70.60;;;;;;5074576;28;20021;-73
2022/07/12 04:55:29;;;;;;;8.88;3.53;;;24.30;69.80;;;;;;5075343;28;20031;-72
2022/07/12 04:57:55;;;;;;;9.35;3.88;;;24.50;70.10;;;;;;5074889;28;20028;-80
2022/07/12 05:00:21;;;;;;;10.35;4.07;;;24.30;71.20;;;;;;5074285;28;20037;-76
2022/07/12 05:02:47;;;;;;;5.50;3.00;;;24.40;71.60;;;;;;5074437;28;20047;-76
2022/07/12 05:05:14;;;;;;;13.13;2.97;;;23.80;72.60;;;;;;5074323;28;20471;-79
2022/07/12 05:07:41;;;;;;;6.32;3.10;;;22.40;74.50;;;;;;5074511;28;20024;-79
2022/07/12 05:10:07;;;;;;;6.68;2.70;;;21.90;76.70;;;;;;5074032;28;20027;-82
2022/07/12 05:12:36;;;;;;;5.53;2.45;;;21.00;78.60;;;;;;5074542;28;20083;-80
2022/07/12 05:15:03;;;;;;;7.05;2.38;;;20.20;81.70;;;;;;5074118;28;20020;-83
2022/07/12 05:17:29;;;;;;;3.90;2.60;;;20.00;83.10;;;;;;5074493;28;20491;-84
2022/07/12 05:19:55;;;;;;;6.55;2.40;;;20.00;85.80;;;;;;5074208;28;20174;-81
2022/07/12 05:22:21;;;;;;;4.75;2.45;;;19.80;87.10;;;;;;5073684;28;20029;-70
2022/07/12 05:24:46;;;;;;;8.18;2.20;;;20.00;86.60;;;;;;5073605;28;20052;-79
2022/07/12 05:27:12;;;;;;;4.72;2.65;;;19.90;87.80;;;;;;5072949;28;20398;-78
2022/07/12 05:29:38;;;;;;;7.47;2.92;;;20.00;88.80;;;;;;5073933;28;20025;-79
2022/07/12 05:32:05;;;;;;;5.72;2.50;;;19.80;88.90;;;;;;5073385;28;20039;-78
2022/07/12 05:34:33;;;;;;;7.53;2.72;;;19.80;90.90;;;;;;5073141;28;20032;-79
2022/07/12 05:36:59;;;;;;;7.90;2.85;;;19.80;91.30;;;;;;5071757;28;20021;-80
2022/07/12 05:39:25;;;;;;;8.35;2.75;;;20.00;90.80;;;;;;5073389;28;20463;-78
2022/07/12 05:41:51;;;;;;;7.85;2.65;;;20.00;91.50;;;;;;5071724;28;20033;-78
2022/07/12 05:44:18;;;;;;;7.05;2.88;;;20.20;90.70;;;;;;5062654;28;20035;-79
2022/07/12 05:46:45;;;;;;;7.45;3.25;;;20.30;91.30;;;;;;5073545;28;20036;-77
2022/07/12 05:49:11;;;;;;;5.03;2.55;;;20.40;90.40;;;;;;5073073;28;20028;-79
2022/07/12 05:54:21;;;;;;;5.85;2.33;;;20.40;91.40;;;;;;5065013;28;20040;-76
2022/07/12 05:56:48;;;;;;;7.93;1.83;;;20.70;91.20;;;;;;5083568;28;20028;-77
2022/07/12 05:59:14;;;;;;;6.68;2.53;;;21.00;90.90;;;;;;5072442;28;20035;-76
2022/07/12 06:01:40;;;;;;;3.95;2.15;;;21.20;91.20;;;;;;5073269;28;20032;-75
2022/07/12 06:04:07;;;;;;;4.28;2.40;;;21.30;89.70;;;;;;5072279;28;20020;-77
2022/07/12 06:06:33;;;;;;;4.53;2.10;;;21.60;88.90;;;;;;5071974;28;20024;-76
2022/07/12 06:08:59;;;;;;;4.35;2.33;;;21.50;83.20;;;;;;5072154;28;20433;-76
2022/07/12 06:11:24;;;;;;;8.27;1.88;;;21.60;85.70;;;;;;5071686;28;20084;-76
2022/07/12 06:13:50;;;;;;;4.95;1.50;;;21.80;84.80;;;;;;5072306;28;20119;-76
2022/07/12 06:16:17;;;;;;;4.30;1.95;;;21.80;84.00;;;;;;5072212;28;20028;-76
2022/07/12 06:18:42;;;;;;;4.78;1.92;;;21.80;80.00;;;;;;5072744;28;20054;-77
2022/07/12 06:21:08;;;;;;;3.22;1.50;;;21.60;80.80;;;;;;5072151;28;20033;-78
2022/07/12 06:23:34;;;;;;;6.47;1.80;;;21.60;76.50;;;;;;5071157;28;20043;-75
2022/07/12 06:26:00;;;;;;;5.47;2.28;;;21.70;79.20;;;;;;5072498;28;20024;-77
2022/07/12 06:28:26;;;;;;;4.25;1.50;;;21.90;78.00;;;;;;5072078;28;20020;-78
2022/07/12 06:30:52;;;;;;;2.92;1.90;;;22.10;77.60;;;;;;5072697;28;20059;-76
2022/07/12 06:33:18;;;;;;;7.22;2.42;;;22.20;75.40;;;;;;5071981;28;20060;-69
2022/07/12 06:35:43;;;;;;;2.90;2.00;;;22.30;77.00;;;;;;5072773;28;20368;-77
2022/07/12 06:38:09;;;;;;;4.55;1.90;;;22.50;79.10;;;;;;5072064;28;20082;-76
2022/07/12 06:40:35;;;;;;;7.13;2.70;;;22.70;77.50;;;;;;5071698;28;20040;-71
2022/07/12 06:43:01;;;;;;;5.65;2.10;;;22.80;77.50;;;;;;5071564;28;20025;-78
2022/07/12 06:45:27;;;;;;;4.68;2.25;;;22.90;77.10;;;;;;5062697;28;20089;-78
2022/07/12 06:47:53;;;;;;;3.88;2.05;;;23.10;75.00;;;;;;5071662;28;20025;-74
2022/07/12 06:50:19;;;;;;;4.03;2.05;;;23.10;73.50;;;;;;5072098;28;20048;-77
2022/07/12 06:52:45;;;;;;;5.10;1.83;;;23.10;75.00;;;;;;5071829;28;20070;-76
2022/07/12 06:55:10;;;;;;;3.17;1.83;;;23.00;73.30;;;;;;5068109;28;20487;-76
2022/07/12 06:57:39;;;;;;;7.32;2.40;;;23.10;72.00;;;;;;5071897;28;20092;-76
2022/07/12 07:00:07;;;;;;;5.75;1.85;;;23.20;73.00;;;;;;5069745;28;20037;-76
2022/07/12 07:02:33;;;;;;;7.47;2.40;;;23.10;73.90;;;;;;5072072;28;20035;-77
2022/07/12 07:04:59;;;;;;;5.25;1.75;;;23.40;73.20;;;;;;5071850;28;20016;-77
2022/07/12 07:07:25;;;;;;;3.20;1.80;;;23.60;73.10;;;;;;5070540;28;20048;-76
2022/07/12 07:09:50;;;;;;;13.50;2.65;;;23.60;73.40;;;;;;5068707;28;20455;-75
2022/07/12 07:12:16;;;;;;;4.65;1.70;;;23.90;71.80;;;;;;5070907;28;20051;-78
2022/07/12 07:14:42;;;;;;;4.90;2.15;;;23.70;71.40;;;;;;5071203;28;20478;-80
2022/07/12 07:17:08;;;;;;;6.22;2.13;;;23.50;72.00;;;;;;5071601;28;20111;-78
2022/07/12 07:19:36;;;;;;;6.07;1.95;;;23.70;72.00;;;;;;5071323;28;20622;-80
2022/07/12 07:22:01;;;;;;;6.93;2.10;;;23.80;70.70;;;;;;5071164;28;20029;-78
2022/07/12 07:24:27;;;;;;;5.20;1.55;;;23.90;71.90;;;;;;5067260;28;20031;-78
2022/07/12 07:26:53;;;;;;;4.30;2.13;;;24.10;70.90;;;;;;5071479;28;20534;-80
2022/07/12 07:32:04;;;;;;;8.10;2.38;;;24.20;70.70;;;;;;5068371;28;20121;-82
2022/07/12 07:34:30;;;;;;;6.45;1.98;;;24.40;70.70;;;;;;5071554;28;20107;-80
2022/07/12 07:36:55;;;;;;;9.18;2.20;;;24.70;69.90;;;;;;5071782;28;20742;-81
2022/07/12 07:39:22;;;;;;;6.70;1.75;;;;;;;;;;5071601;28;20028;-79
2022/07/12 07:41:47;;;;;;;4.88;1.98;;;24.30;68.30;;;;;;5070623;28;20032;-81
2022/07/12 07:44:13;;;;;;;9.73;3.00;;;24.50;68.00;;;;;;5070893;28;20392;-83
2022/07/12 07:46:39;;;;;;;6.72;2.05;;;24.50;69.50;;;;;;5070861;28;20017;-81
2022/07/12 07:49:05;;;;;;;4.18;2.15;;;24.80;69.70;;;;;;5071086;28;20020;-82
2022/07/12 07:51:31;;;;;;;5.05;2.22;;;24.70;66.50;;;;;;5070346;28;20071;-75
2022/07/12 07:53:56;;;;;;;11.32;2.40;;;24.60;65.00;;;;;;5070112;28;20040;-78
2022/07/12 07:56:22;;;;;;;4.95;2.00;;;24.90;65.70;;;;;;5071522;28;20037;-81
2022/07/12 07:58:48;;;;;;;3.22;1.60;;;25.10;67.50;;;;;;5070794;28;20100;-81
2022/07/12 08:01:14;;;;;;;7.68;2.03;;;25.00;66.20;;;;;;5071189;28;20479;-80
2022/07/12 08:03:39;;;;;;;6.80;2.08;;;25.20;64.00;;;;;;5071321;28;20100;-82
2022/07/12 08:06:06;;;;;;;2.42;1.50;;;25.20;65.00;;;;;;5070447;28;20077;-81
2022/07/12 08:08:31;;;;;;;7.07;1.98;;;25.10;63.50;;;;;;5074626;28;20077;-80
2022/07/12 08:10:57;;;;;;;3.97;1.52;;;25.20;65.10;;;;;;5074388;28;20040;-81
2022/07/12 08:13:23;;;;;;;3.65;1.63;;;25.30;65.40;;;;;;5074698;28;20052;-80
2022/07/12 08:15:49;;;;;;;2.55;1.52;;;25.30;65.50;;;;;;5074334;28;20028;-80
2022/07/12 08:18:15;;;;;;;4.85;1.60;;;25.40;64.90;;;;;;5074559;28;20029;-80
2022/07/12 08:20:41;;;;;;;5.10;1.70;;;25.40;63.90;;;;;;5074980;28;20360;-79
2022/07/12 08:23:08;;;;;;;8.43;1.95;;;25.00;63.40;;;;;;5074480;28;20020;-81
2022/07/12 08:25:34;;;;;;;3.25;1.92;;;25.60;64.80;;;;;;5073718;28;20115;-76
2022/07/12 08:28:00;;;;;;;4.45;1.85;;;25.60;62.10;;;;;;5074343;28;20074;-76
2022/07/12 08:30:27;;;;;;;3.40;1.70;;;25.70;62.60;;;;;;5074202;28;20020;-80
2022/07/12 08:32:54;;;;;;;3.83;1.77;;;25.70;62.30;;;;;;5074021;28;20032;-80
2022/07/12 08:35:20;;;;;;;5.60;1.80;;;25.30;62.10;;;;;;5074270;28;20044;-82
2022/07/12 08:37:46;;;;;;;4.28;1.55;;;25.60;63.00;;;;;;5074633;28;20028;-81
2022/07/12 08:40:12;;;;;;;5.63;1.77;;;25.80;62.70;;;;;;5073918;28;20048;-79
2022/07/12 08:42:42;;;;;;;4.47;1.60;;;25.70;63.00;;;;;;5071584;28;20036;-78
2022/07/12 08:45:11;;;;;;;4.95;1.77;;;25.40;61.00;;;;;;5071435;28;20390;-81
2022/07/12 08:47:37;;;;;;;5.32;2.15;;;25.90;63.40;;;;;;5073918;28;20086;-84
2022/07/12 08:50:33;;;;;;;3.35;1.30;;;25.70;60.10;;;;;;5074388;28;20032;-77
2022/07/12 08:52:59;;;;;;;7.10;1.42;;;25.50;59.80;;;;;;5004268;28;20048;-82
2022/07/12 08:55:29;;;;;;;2.55;1.17;;;25.80;62.80;;;;;;4995605;28;20033;-84
2022/07/12 08:58:03;;;;;;;5.68;1.95;;;25.80;62.40;;;;;;5012016;28;20500;-83
2022/07/12 09:00:30;;;;;;;3.63;1.60;;;26.10;64.20;;;;;;5011579;28;20499;-80
2022/07/12 09:02:58;;;;;;;1.67;1.23;;;26.20;59.40;;;;;;5012312;28;20120;-81
2022/07/12 09:05:25;;;;;;;3.70;1.48;;;26.40;59.30;;;;;;5012442;28;20439;-72
2022/07/12 09:08:01;;;;;;;4.40;1.45;;;25.80;59.90;;;;;;5011456;28;20018;-84
2022/07/12 09:10:27;;;;;;;2.80;1.42;;;25.80;60.00;;;;;;5011513;28;20095;-83
2022/07/12 09:12:52;;;;;;;5.07;1.75;;;25.90;59.00;;;;;;5011116;28;20112;-83
2022/07/12 09:15:20;;;;;;;3.28;1.88;;;26.30;59.20;;;;;;5011821;28;20523;-84
2022/07/12 09:18:15;;;;;;;4.38;1.50;;;26.40;59.70;;;;;;4997602;28;20018;-83
2022/07/12 09:20:43;;;;;;;2.17;1.35;;;27.00;60.20;;;;;;5011544;28;20037;-83
2022/07/12 09:23:11;;;;;;;3.17;1.42;;;25.80;57.70;;;;;;5011607;28;20026;-79
2022/07/12 09:25:38;;;;;;;8.20;1.70;;;25.60;59.30;;;;;;5011411;28;20068;-82
2022/07/12 09:28:07;;;;;;;1.85;1.38;;;25.80;59.30;;;;;;5011315;28;20088;-82
2022/07/12 09:30:33;;;;;;;2.67;1.58;;;26.10;59.60;;;;;;5066697;28;20182;-84
2022/07/12 09:36:06;;;;;;;2.25;1.40;;;26.20;57.80;;;;;;5071308;28;20475;-83
2022/07/12 09:38:53;;;;;;;3.53;1.58;;;26.40;58.00;;;;;;5073081;28;20031;-83
2022/07/12 09:41:21;;;;;;;3.13;1.30;;;26.00;58.00;;;;;;5059382;28;20032;-77
2022/07/12 09:43:48;;;;;;;1.35;0.90;;;26.00;58.40;;;;;;5064091;28;20033;-79
2022/07/12 09:46:14;;;;;;;8.88;1.52;;;25.70;56.50;;;;;;5073603;28;20025;-76
2022/07/12 09:48:41;;;;;;;1.77;1.00;;;25.50;57.50;;;;;;5072493;28;20028;-84
2022/07/12 09:51:09;;;;;;;4.80;1.83;;;25.20;58.80;;;;;;5072050;28;20047;-81
2022/07/12 09:53:48;;;;;;;1.73;1.15;;;25.50;58.50;;;;;;5072720;28;20060;-83
2022/07/12 09:56:16;;;;;;;1.90;1.40;;;25.80;58.20;;;;;;5072457;28;20117;-83
2022/07/12 09:58:52;;;;;;;2.63;1.30;;;26.30;58.00;;;;;;5073283;28;20020;-85
2022/07/12 10:01:19;;;;;;;5.13;1.80;;;26.30;58.30;;;;;;5072938;28;20487;-84
2022/07/12 10:03:46;;;;;;;3.70;1.67;;;26.30;58.70;;;;;;5072945;28;20032;-77
2022/07/12 10:06:15;;;;;;;4.65;1.38;;;26.00;57.80;;;;;;5059165;28;20029;-83
2022/07/12 10:08:41;;;;;;;5.65;1.75;;;26.00;57.70;;;;;;5072376;28;20074;-83
2022/07/12 10:11:07;;;;;;;1.92;1.25;;;26.00;56.70;;;;;;5072869;28;20044;-82
2022/07/12 10:13:35;;;;;;;3.28;1.42;;;25.60;57.90;;;;;;5070755;28;20111;-78
2022/07/12 10:16:02;;;;;;;2.95;1.08;;;26.10;57.90;;;;;;5069444;28;20039;-82
2022/07/12 10:18:29;;;;;;;1.83;1.02;;;26.40;56.00;;;;;;5072020;28;20016;-82
2022/07/12 10:20:55;;;;;;;3.65;1.23;;;26.40;54.90;;;;;;5071758;28;20041;-81
2022/07/12 10:23:36;;;;;;;2.83;1.30;;;26.00;55.20;;;;;;5072754;28;20036;-82
2022/07/12 10:26:37;;;;;;;2.10;1.25;;;25.90;54.90;;;;;;5071598;28;20024;-83
2022/07/12 10:29:09;;;;;;;1.15;1.00;;;26.00;55.70;;;;;;5068922;28;20373;-78
2022/07/12 10:31:40;;;;;;;3.72;0.90;;;26.20;55.70;;;;;;5071599;28;20028;-81
2022/07/12 10:34:20;;;;;;;7.03;1.40;;;26.20;56.00;;;;;;5072259;28;20686;-82
2022/07/12 10:36:55;;;;;;;1.85;1.08;;;26.40;57.20;;;;;;5071984;28;20039;-84
2022/07/12 10:39:25;;;;;;;1.88;1.33;;;26.30;57.30;;;;;;5072475;28;20028;-81
2022/07/12 10:42:14;;;;;;;6.20;1.65;;;26.30;56.20;;;;;;5071173;28;20501;-76
2022/07/12 10:44:44;;;;;;;1.70;0.95;;;26.70;57.40;;;;;;5070613;28;20111;-82
2022/07/12 10:47:12;;;;;;;2.78;1.30;;;26.70;52.90;;;;;;5058896;28;20020;-84
2022/07/12 10:49:46;;;;;;;2.67;1.60;;;26.60;54.50;;;;;;5073338;28;20017;-79
2022/07/12 10:52:22;;;;;;;7.43;1.42;;;26.50;54.30;;;;;;5074175;28;20036;-85
2022/07/12 10:55:13;;;;;;;2.83;1.48;;;26.90;57.00;;;;;;5072551;28;20114;-87
2022/07/12 10:57:52;;;;;;;1.52;1.08;;;26.50;54.80;;;;;;5073633;28;20120;-85
2022/07/12 11:00:19;;;;;;;1.70;0.90;;;26.70;55.50;;;;;;5071412;28;20433;-80
2022/07/12 11:02:45;;;;;;;2.20;1.15;;;26.70;54.60;;;;;;5072143;28;20017;-85
2022/07/12 11:05:11;;;;;;;2.92;0.75;;;26.70;56.20;;;;;;5071772;28;20716;-84
2022/07/12 11:07:38;;;;;;;1.38;1.00;;;26.90;57.60;;;;;;5070809;28;20021;-81
2022/07/12 11:10:05;;;;;;;1.73;0.98;;;26.70;55.80;;;;;;5069823;28;20514;-86
2022/07/12 11:12:31;;;;;;;3.80;1.05;;;27.00;54.60;;;;;;5071824;28;20035;-83
2022/07/12 11:15:01;;;;;;;2.17;1.10;;;26.90;52.70;;;;;;5080795;28;20081;-81
2022/07/12 11:17:32;;;;;;;1.50;1.10;;;27.10;53.00;;;;;;5072372;28;20039;-84
2022/07/12 11:20:06;;;;;;;1.95;1.00;;;26.70;54.40;;;;;;5072227;28;20123;-85
2022/07/12 11:22:33;;;;;;;10.18;1.42;;;26.80;55.30;;;;;;5071245;28;20025;-74
2022/07/12 11:24:59;;;;;;;1.33;1.17;;;26.70;57.90;;;;;;5071552;28;20048;-84
2022/07/12 11:27:27;;;;;;;1.70;1.23;;;26.40;59.00;;;;;;5071508;28;20028;-84
2022/07/12 11:30:00;;;;;;;1.20;0.93;;;26.30;59.70;;;;;;5071320;28;20459;-74
2022/07/12 11:32:35;;;;;;;2.28;1.67;;;26.40;55.60;;;;;;5071478;28;20046;-78
2022/07/12 11:35:01;;;;;;;3.47;1.33;;;26.30;56.60;;;;;;5072145;28;20383;-81
2022/07/12 11:37:27;;;;;;;2.83;1.38;;;25.80;57.60;;;;;;5070237;28;20020;-81
2022/07/12 11:39:53;;;;;;;9.10;1.65;;;25.80;60.00;;;;;;5065679;28;20036;-83
2022/07/12 11:42:19;;;;;;;5.05;1.95;;;25.70;61.40;;;;;;5063117;28;20032;-87
2022/07/12 11:44:46;;;;;;;2.13;1.15;;;25.60;61.10;;;;;;5076040;28;20024;-79
2022/07/12 11:47:12;;;;;;;3.67;1.50;;;25.70;58.80;;;;;;5075457;28;20056;-80
2022/07/12 11:49:46;;;;;;;2.92;1.23;;;25.60;58.40;;;;;;5073808;28;20029;-74
2022/07/12 11:52:17;;;;;;;5.32;1.20;;;25.50;57.00;;;;;;5072405;28;20017;-77
2022/07/12 11:54:47;;;;;;;3.88;1.17;;;25.90;58.80;;;;;;5074679;28;20028;-77
2022/07/12 11:57:13;;;;;;;3.55;1.52;;;26.00;57.70;;;;;;5074499;28;20471;-79
2022/07/12 12:03:13;;;;;;;1.02;0.90;;;26.50;58.10;;;;;;5088136;28;20048;-79
2022/07/12 12:05:40;;;;;;;3.20;1.20;;;26.40;57.90;;;;;;5094658;28;20039;-78
2022/07/12 12:08:07;;;;;;;1.60;1.13;;;26.40;57.50;;;;;;5086608;28;20482;-80
2022/07/12 12:10:34;;;;;;;2.38;0.98;;;26.90;60.30;;;;;;5094899;28;20055;-80
2022/07/12 12:13:01;;;;;;;2.60;1.05;;;26.80;56.20;;;;;;5093948;28;20374;-76
2022/07/12 12:15:31;;;;;;;2.75;1.00;;;26.60;55.50;;;;;;5094351;28;20032;-79
2022/07/12 12:18:02;;;;;;;2.33;1.05;;;26.50;55.20;;;;;;5094440;28;20028;-80
2022/07/12 12:20:33;;;;;;;1.15;0.93;;;26.40;55.60;;;;;;5091185;28;20516;-77
2022/07/12 12:23:03;;;;;;;1.47;1.07;;;26.20;56.60;;;;;;5091131;28;20107;-77
2022/07/12 12:25:30;;;;;;;5.03;1.23;;;26.20;57.60;;;;;;5092762;28;20039;-77
2022/07/12 12:28:03;;;;;;;2.40;1.05;;;26.30;58.10;;;;;;5093854;28;20484;-77
2022/07/12 12:30:32;;;;;;;2.40;1.30;;;26.40;58.10;;;;;;5079176;28;20028;-79
2022/07/12 12:32:59;;;;;;;3.88;1.27;;;26.60;60.50;;;;;;5091957;28;20031;-76
2022/07/12 12:35:36;;;;;;;1.88;0.90;;;26.40;56.90;;;;;;5089808;28;20020;-79
2022/07/12 12:38:03;;;;;;;1.55;1.10;;;26.30;55.20;;;;;;5093193;28;20028;-80
2022/07/12 12:40:35;;;;;;;1.52;0.90;;;26.90;56.10;;;;;;5093402;28;20635;-76
2022/07/12 12:43:12;;;;;;;5.25;1.73;;;27.00;58.80;;;;;;5094638;28;20039;-78
2022/07/12 12:45:50;;;;;;;3.53;1.30;;;26.90;58.70;;;;;;5092160;28;20035;-77
2022/07/12 12:48:22;;;;;;;3.58;1.00;;;26.70;58.50;;;;;;5080686;28;20486;-79
2022/07/12 12:50:50;;;;;;;3.42;0.88;;;26.50;58.40;;;;;;5073984;28;20020;-81
2022/07/12 12:53:18;;;;;;;1.80;1.10;;;26.70;54.20;;;;;;5093416;28;20028;-78
2022/07/12 12:55:46;;;;;;;1.38;1.00;;;26.80;53.70;;;;;;5094384;28;20032;-79
2022/07/12 12:58:13;;;;;;;3.92;1.17;;;26.70;56.80;;;;;;5093875;28;20040;-78
2022/07/12 13:00:42;;;;;;;3.55;1.30;;;26.90;56.50;;;;;;5074162;28;20036;-79
2022/07/12 13:03:09;;;;;;;1.45;0.90;;;26.90;56.30;;;;;;5092938;28;20497;-64